createdAt,value
2018-05-23T00:00:21.829Z,29.52
2018-05-23T00:01:24.405Z,29.25
2018-05-23T00:02:27.676Z,29.00
2018-05-23T00:03:30.168Z,28.50
2018-05-23T00:04:33.407Z,27.70
2018-05-23T00:05:36.052Z,28.42
2018-05-23T00:06:38.546Z,28.87
2018-05-23T00:07:41.020Z,28.62
2018-05-23T00:08:43.508Z,27.70
2018-05-23T00:09:46.012Z,29.30
2018-05-23T00:10:49.703Z,29.30
2018-05-23T00:11:52.216Z,28.58
2018-05-23T00:12:54.697Z,29.10
2018-05-23T00:13:57.956Z,29.08
2018-05-23T00:15:00.431Z,29.00
2018-05-23T00:16:03.151Z,30.77
2018-05-23T00:17:05.662Z,30.52
2018-05-23T00:18:08.136Z,28.12
2018-05-23T00:19:10.624Z,30.48
2018-05-23T00:20:14.134Z,31.33
2018-05-23T00:21:18.544Z,30.48
2018-05-23T00:22:21.052Z,29.52
2018-05-23T00:23:23.521Z,29.48
2018-05-23T00:24:26.791Z,27.50
2018-05-23T00:25:29.526Z,29.00
2018-05-23T00:26:32.032Z,30.37
2018-05-23T00:27:34.512Z,30.48
2018-05-23T00:28:36.984Z,29.27
2018-05-23T00:29:40.237Z,30.95
2018-05-23T00:30:42.974Z,29.40
2018-05-23T00:31:45.473Z,31.30
2018-05-23T00:32:47.941Z,30.45
2018-05-23T00:33:50.408Z,31.05
2018-05-23T00:34:52.892Z,31.12
2018-05-23T00:35:55.644Z,30.65
2018-05-23T00:36:58.135Z,29.95
2018-05-23T00:38:01.376Z,30.73
2018-05-23T00:39:03.844Z,31.58
2018-05-23T00:40:08.674Z,31.33
2018-05-23T00:41:11.405Z,31.85
2018-05-23T00:42:13.907Z,31.75
2018-05-23T00:43:16.380Z,33.35
2018-05-23T00:44:18.858Z,32.88
2018-05-23T00:45:22.490Z,31.12
2018-05-23T00:46:25.263Z,33.10
2018-05-23T00:47:27.767Z,30.62
2018-05-23T00:48:30.235Z,31.05
2018-05-23T00:49:32.707Z,32.67
2018-05-23T00:50:35.425Z,32.13
2018-05-23T00:51:37.954Z,32.25
2018-05-23T00:52:40.396Z,33.00
2018-05-23T00:53:42.872Z,33.22
2018-05-23T00:54:57.272Z,31.70
2018-05-23T00:56:00.090Z,32.00
2018-05-23T00:57:03.344Z,32.05
2018-05-23T00:58:05.822Z,30.98
2018-05-23T00:59:08.302Z,30.50
2018-05-23T01:00:11.019Z,30.30
2018-05-23T01:01:13.761Z,30.23
2018-05-23T01:02:16.253Z,30.35
2018-05-23T01:03:18.723Z,29.50
2018-05-23T01:04:21.232Z,30.83
2018-05-23T01:05:23.955Z,30.40
2018-05-23T01:06:27.135Z,29.58
2018-05-23T01:07:29.689Z,30.83
2018-05-23T01:08:32.924Z,31.75
2018-05-23T01:09:35.393Z,33.10
2018-05-23T01:10:38.221Z,31.83
2018-05-23T01:11:40.748Z,32.60
2018-05-23T01:12:43.220Z,32.30
2018-05-23T01:13:46.456Z,32.33
2018-05-23T01:14:48.932Z,31.45
2018-05-23T01:15:51.668Z,31.23
2018-05-23T01:16:54.199Z,31.12
2018-05-23T01:17:57.436Z,31.98
2018-05-23T01:18:59.904Z,31.80
2018-05-23T01:20:02.372Z,30.95
2018-05-23T01:21:05.116Z,31.55
2018-05-23T01:22:07.688Z,31.35
2018-05-23T01:23:10.155Z,30.62
2018-05-23T01:24:12.632Z,31.67
2018-05-23T01:25:15.791Z,31.83
2018-05-23T01:26:20.655Z,31.42
2018-05-23T01:27:23.170Z,31.15
2018-05-23T01:28:25.636Z,33.95
2018-05-23T01:29:28.115Z,33.20
2018-05-23T01:30:31.799Z,33.67
2018-05-23T01:31:34.304Z,33.53
2018-05-23T01:32:36.792Z,33.17
2018-05-23T01:33:40.036Z,34.05
2018-05-23T01:34:42.504Z,34.05
2018-05-23T01:35:45.247Z,33.75
2018-05-23T01:36:47.747Z,33.90
2018-05-23T01:37:50.233Z,33.00
2018-05-23T01:38:52.704Z,32.05
2018-05-23T01:39:55.940Z,33.17
2018-05-23T01:40:58.632Z,34.08
2018-05-23T01:42:02.668Z,33.03
2018-05-23T01:43:05.936Z,34.05
2018-05-23T01:44:08.412Z,34.67
2018-05-23T01:45:12.647Z,32.85
2018-05-23T01:46:15.358Z,33.22
2018-05-23T01:47:17.849Z,32.15
2018-05-23T01:48:21.108Z,32.30
2018-05-23T01:49:26.404Z,31.55
2018-05-23T01:50:29.166Z,31.98
2018-05-23T01:51:31.667Z,32.72
2018-05-23T01:52:34.140Z,32.95
2018-05-23T01:53:36.632Z,31.40
2018-05-23T01:54:39.871Z,32.40
2018-05-23T01:55:42.660Z,32.38
2018-05-23T01:56:45.144Z,32.95
2018-05-23T01:57:48.380Z,32.08
2018-05-23T01:58:50.884Z,33.45
2018-05-23T01:59:53.354Z,31.80
2018-05-23T02:00:56.115Z,32.90
2018-05-23T02:01:59.368Z,33.22
2018-05-23T02:03:01.844Z,31.85
2018-05-23T02:04:04.335Z,33.85
2018-05-23T02:05:07.917Z,32.15
2018-05-23T02:06:11.561Z,32.20
2018-05-23T02:07:14.072Z,32.67
2018-05-23T02:08:16.540Z,32.53
2018-05-23T02:09:19.032Z,31.48
2018-05-23T02:10:22.575Z,31.42
2018-05-23T02:11:25.413Z,33.55
2018-05-23T02:12:27.920Z,32.17
2018-05-23T02:13:30.388Z,32.80
2018-05-23T02:14:32.885Z,33.30
2018-05-23T02:15:36.436Z,32.97
2018-05-23T02:16:38.916Z,33.78
2018-05-23T02:17:41.388Z,32.55
2018-05-23T02:18:44.628Z,35.50
2018-05-23T02:19:47.116Z,32.70
2018-05-23T02:20:49.890Z,33.90
2018-05-23T02:21:52.372Z,35.05
2018-05-23T02:22:55.609Z,34.10
2018-05-23T02:23:58.080Z,35.08
2018-05-23T02:25:00.575Z,35.10
2018-05-23T02:26:03.395Z,34.95
2018-05-23T02:27:05.903Z,33.70
2018-05-23T02:28:08.379Z,34.60
2018-05-23T02:29:10.848Z,34.15
2018-05-23T02:30:14.481Z,34.95
2018-05-23T02:31:17.587Z,33.83
2018-05-23T02:32:20.080Z,33.40
2018-05-23T02:33:23.321Z,33.65
2018-05-23T02:34:25.796Z,31.77
2018-05-23T02:35:28.595Z,34.00
2018-05-23T02:36:32.075Z,32.83
2018-05-23T02:37:34.560Z,33.08
2018-05-23T02:38:37.036Z,33.53
2018-05-23T02:39:40.275Z,33.50
2018-05-23T02:40:43.116Z,33.08
2018-05-23T02:41:45.632Z,33.03
2018-05-23T02:42:48.104Z,33.33
2018-05-23T02:43:50.572Z,33.67
2018-05-23T02:44:53.811Z,33.80
2018-05-23T02:45:56.562Z,32.67
2018-05-23T02:46:59.078Z,32.35
2018-05-23T02:48:01.551Z,33.33
2018-05-23T02:49:04.053Z,34.42
2018-05-23T02:50:06.760Z,33.53
2018-05-23T02:51:09.533Z,33.78
2018-05-23T02:52:12.015Z,32.50
2018-05-23T02:53:14.488Z,34.38
2018-05-23T02:54:18.468Z,32.78
2018-05-23T02:55:21.242Z,33.13
2018-05-23T02:56:24.788Z,34.13
2018-05-23T02:57:27.292Z,33.17
2018-05-23T02:58:29.769Z,34.72
2018-05-23T02:59:32.703Z,35.45
2018-05-23T03:00:35.464Z,34.85
2018-05-23T03:01:37.984Z,34.05
2018-05-23T03:02:40.452Z,35.90
2018-05-23T03:03:42.924Z,34.70
2018-05-23T03:04:46.165Z,34.95
2018-05-23T03:05:49.255Z,34.05
2018-05-23T03:06:51.771Z,32.72
2018-05-23T03:07:55.013Z,35.05
2018-05-23T03:08:57.487Z,34.88
2018-05-23T03:09:59.962Z,35.33
2018-05-23T03:11:03.485Z,33.50
2018-05-23T03:12:06.007Z,34.17
2018-05-23T03:13:08.480Z,35.47
2018-05-23T03:14:11.720Z,34.17
2018-05-23T03:15:14.571Z,33.65
2018-05-23T03:16:17.342Z,34.42
2018-05-23T03:17:19.863Z,34.10
2018-05-23T03:18:22.339Z,33.47
2018-05-23T03:19:25.580Z,33.13
2018-05-23T03:20:28.326Z,34.10
2018-05-23T03:21:32.018Z,34.85
2018-05-23T03:22:34.543Z,34.40
2018-05-23T03:23:37.783Z,34.83
2018-05-23T03:24:40.284Z,34.67
2018-05-23T03:25:43.105Z,34.60
2018-05-23T03:26:45.577Z,36.17
2018-05-23T03:27:48.068Z,36.53
2018-05-23T03:28:50.535Z,35.60
2018-05-23T03:29:53.007Z,37.78
2018-05-23T03:30:55.835Z,37.53
2018-05-23T03:31:58.323Z,38.67
2018-05-23T03:33:00.823Z,37.13
2018-05-23T03:34:03.296Z,38.42
2018-05-23T03:35:06.536Z,38.33
2018-05-23T03:36:09.282Z,37.72
2018-05-23T03:37:11.812Z,37.75
2018-05-23T03:38:14.272Z,36.80
2018-05-23T03:39:16.744Z,36.97
2018-05-23T03:40:19.551Z,37.05
2018-05-23T03:41:22.262Z,37.08
2018-05-23T03:42:26.252Z,35.40
2018-05-23T03:43:28.748Z,36.17
2018-05-23T03:44:31.987Z,37.25
2018-05-23T03:45:34.737Z,38.47
2018-05-23T03:46:37.243Z,38.65
2018-05-23T03:47:39.728Z,37.78
2018-05-23T03:48:42.220Z,38.78
2018-05-23T03:49:45.457Z,38.85
2018-05-23T03:50:48.185Z,37.63
2018-05-23T03:51:50.676Z,38.20
2018-05-23T03:52:53.150Z,38.20
2018-05-23T03:53:55.636Z,38.60
2018-05-23T03:54:58.116Z,39.65
2018-05-23T03:56:01.641Z,38.67
2018-05-23T03:57:04.159Z,38.83
2018-05-23T03:58:06.632Z,40.60
2018-05-23T03:59:09.884Z,38.25
2018-05-23T04:00:24.447Z,40.40
2018-05-23T04:01:39.680Z,37.67
2018-05-23T04:04:51.015Z,39.20
2018-05-23T04:06:05.489Z,37.85
2018-05-23T04:07:19.808Z,40.45
2018-05-23T04:08:23.044Z,41.17
2018-05-23T04:09:25.512Z,39.25
2018-05-23T04:10:28.356Z,39.88
2018-05-23T04:11:31.733Z,39.72
2018-05-23T04:12:34.240Z,40.17
2018-05-23T04:13:36.708Z,40.12
2018-05-23T04:14:39.185Z,40.38
2018-05-23T04:15:41.877Z,39.25
2018-05-23T04:16:44.372Z,40.00
2018-05-23T04:17:46.840Z,39.42
2018-05-23T04:18:49.316Z,39.50
2018-05-23T04:19:51.784Z,40.38
2018-05-23T04:20:54.629Z,39.50
2018-05-23T04:21:57.145Z,39.88
2018-05-23T04:22:59.616Z,39.75
2018-05-23T04:24:02.120Z,38.95
2018-05-23T04:25:05.332Z,38.88
2018-05-23T04:26:07.898Z,38.55
2018-05-23T04:27:10.375Z,40.30
2018-05-23T04:28:12.888Z,39.42
2018-05-23T04:29:16.120Z,40.15
2018-05-23T04:30:18.855Z,39.53
2018-05-23T04:31:21.636Z,40.38
2018-05-23T04:32:24.108Z,38.85
2018-05-23T04:33:26.585Z,39.75
2018-05-23T04:34:29.058Z,38.15
2018-05-23T04:35:31.892Z,39.80
2018-05-23T04:36:34.412Z,40.20
2018-05-23T04:37:36.880Z,39.83
2018-05-23T04:38:39.353Z,40.53
2018-05-23T04:39:42.595Z,38.78
2018-05-23T04:40:45.340Z,40.47
2018-05-23T04:41:48.413Z,38.97
2018-05-23T04:42:50.883Z,40.25
2018-05-23T04:43:53.358Z,39.88
2018-05-23T04:44:55.828Z,38.63
2018-05-23T04:45:58.483Z,39.30
2018-05-23T04:47:00.992Z,39.85
2018-05-23T04:48:03.518Z,40.45
2018-05-23T04:49:05.948Z,39.20
2018-05-23T04:50:10.078Z,39.97
2018-05-23T04:51:13.769Z,40.15
2018-05-23T04:52:16.271Z,39.97
2018-05-23T04:53:18.748Z,41.67
2018-05-23T04:54:21.228Z,40.58
2018-05-23T04:55:24.037Z,40.42
2018-05-23T04:56:26.732Z,40.95
2018-05-23T04:57:29.216Z,39.03
2018-05-23T04:58:31.688Z,42.40
2018-05-23T04:59:34.159Z,42.20
2018-05-23T05:00:36.920Z,42.08
2018-05-23T05:01:40.176Z,42.03
2018-05-23T05:02:42.664Z,43.15
2018-05-23T05:03:45.142Z,43.75
2018-05-23T05:04:47.613Z,42.75
2018-05-23T05:05:51.087Z,43.60
2018-05-23T05:06:54.343Z,42.00
2018-05-23T05:07:56.828Z,44.10
2018-05-23T05:08:59.299Z,42.60
2018-05-23T05:10:01.776Z,42.83
2018-05-23T05:11:05.302Z,41.97
2018-05-23T05:12:07.808Z,42.38
2018-05-23T05:13:10.296Z,40.33
2018-05-23T05:14:12.767Z,41.58
2018-05-23T05:15:16.399Z,41.08
2018-05-23T05:16:19.158Z,42.70
2018-05-23T05:17:21.661Z,41.13
2018-05-23T05:18:24.151Z,41.47
2018-05-23T05:19:26.623Z,41.83
2018-05-23T05:20:31.062Z,39.90
2018-05-23T05:21:33.576Z,40.78
2018-05-23T05:22:36.062Z,41.05
2018-05-23T05:23:39.332Z,41.25
2018-05-23T05:24:41.808Z,42.15
2018-05-23T05:25:45.432Z,41.47
2018-05-23T05:26:47.944Z,41.47
2018-05-23T05:27:50.535Z,40.85
2018-05-23T05:28:53.788Z,40.05
2018-05-23T05:29:56.257Z,39.92
2018-05-23T05:30:59.893Z,40.42
2018-05-23T05:32:02.388Z,40.97
2018-05-23T05:33:04.872Z,42.35
2018-05-23T05:34:07.356Z,40.30
2018-05-23T05:35:10.013Z,41.78
2018-05-23T05:36:13.603Z,41.28
2018-05-23T05:37:16.883Z,40.33
2018-05-23T05:38:19.367Z,41.63
2018-05-23T05:39:22.627Z,40.22
2018-05-23T05:40:25.403Z,40.17
2018-05-23T05:41:28.132Z,39.53
2018-05-23T05:42:30.642Z,40.53
2018-05-23T05:43:33.112Z,42.45
2018-05-23T05:44:35.600Z,41.47
2018-05-23T05:45:39.166Z,40.90
2018-05-23T05:46:42.453Z,41.22
2018-05-23T05:47:44.923Z,41.58
2018-05-23T05:48:48.899Z,41.20
2018-05-23T05:49:51.392Z,41.33
2018-05-23T05:50:54.809Z,42.05
2018-05-23T05:51:57.299Z,40.83
2018-05-23T05:52:59.780Z,40.50
2018-05-23T05:54:02.251Z,40.33
2018-05-23T05:55:04.735Z,40.12
2018-05-23T05:56:08.262Z,37.78
2018-05-23T05:57:10.759Z,36.92
2018-05-23T05:58:13.228Z,36.03
2018-05-23T05:59:15.700Z,37.20
2018-05-23T06:00:18.423Z,37.10
2018-05-23T06:01:21.195Z,39.85
2018-05-23T06:02:23.696Z,39.03
2018-05-23T06:03:26.168Z,40.85
2018-05-23T06:04:28.644Z,37.53
2018-05-23T06:05:32.281Z,39.88
2018-05-23T06:06:34.787Z,38.10
2018-05-23T06:07:37.268Z,38.17
2018-05-23T06:08:39.907Z,36.80
2018-05-23T06:09:42.398Z,36.70
2018-05-23T06:10:45.110Z,37.88
2018-05-23T06:11:47.605Z,37.53
2018-05-23T06:12:50.081Z,37.88
2018-05-23T06:13:52.556Z,39.08
2018-05-23T06:14:55.032Z,36.70
2018-05-23T06:15:58.663Z,37.15
2018-05-23T06:17:01.172Z,34.67
2018-05-23T06:18:03.648Z,37.20
2018-05-23T06:19:06.120Z,39.00
2018-05-23T06:20:08.931Z,38.05
2018-05-23T06:21:11.701Z,39.20
2018-05-23T06:22:14.242Z,40.40
2018-05-23T06:23:16.691Z,40.22
2018-05-23T06:24:19.175Z,38.75
2018-05-23T06:25:22.686Z,41.28
2018-05-23T06:26:25.661Z,39.03
2018-05-23T06:27:28.168Z,38.30
2018-05-23T06:28:30.643Z,40.95
2018-05-23T06:29:33.824Z,37.35
2018-05-23T06:30:36.645Z,39.20
2018-05-23T06:31:39.171Z,36.65
2018-05-23T06:32:41.640Z,37.80
2018-05-23T06:33:44.875Z,37.90
2018-05-23T06:34:47.352Z,37.72
2018-05-23T06:35:50.092Z,37.20
2018-05-23T06:36:52.604Z,38.78
2018-05-23T06:37:55.180Z,38.90
2018-05-23T06:38:57.560Z,38.25
2018-05-23T06:40:00.795Z,38.78
2018-05-23T06:41:03.583Z,37.17
2018-05-23T06:42:06.080Z,38.33
2018-05-23T06:43:09.312Z,37.88
2018-05-23T06:44:11.780Z,37.53
2018-05-23T06:45:14.527Z,38.00
2018-05-23T06:46:17.912Z,36.92
2018-05-23T06:47:20.447Z,38.90
2018-05-23T06:48:23.683Z,38.28
2018-05-23T06:49:26.160Z,38.17
2018-05-23T06:50:28.895Z,38.75
2018-05-23T06:51:31.592Z,38.63
2018-05-23T06:52:35.604Z,38.63
2018-05-23T06:53:38.072Z,40.05
2018-05-23T06:54:40.548Z,38.47
2018-05-23T06:55:43.728Z,40.35
2018-05-23T06:56:46.152Z,38.75
2018-05-23T06:57:48.635Z,39.58
2018-05-23T06:58:51.104Z,39.40
2018-05-23T06:59:53.586Z,39.45
2018-05-23T07:00:56.401Z,38.17
2018-05-23T07:01:59.703Z,36.45
2018-05-23T07:03:02.199Z,37.67
2018-05-23T07:04:04.668Z,39.22
2018-05-23T07:05:07.178Z,38.03
2018-05-23T07:06:09.951Z,38.80
2018-05-23T07:07:12.455Z,38.03
2018-05-23T07:08:14.937Z,40.08
2018-05-23T07:09:17.412Z,39.65
2018-05-23T07:10:20.936Z,38.60
2018-05-23T07:11:23.604Z,38.90
2018-05-23T07:12:26.103Z,38.08
2018-05-23T07:13:28.640Z,38.90
2018-05-23T07:14:31.115Z,38.20
2018-05-23T07:15:33.773Z,39.35
2018-05-23T07:16:36.267Z,37.45
2018-05-23T07:17:38.737Z,37.92
2018-05-23T07:18:41.236Z,38.55
2018-05-23T07:19:44.476Z,38.20
2018-05-23T07:20:47.727Z,38.75
2018-05-23T07:21:50.236Z,39.17
2018-05-23T07:22:52.708Z,38.33
2018-05-23T07:23:55.200Z,37.88
2018-05-23T07:24:58.435Z,37.45
2018-05-23T07:26:01.718Z,38.17
2018-05-23T07:27:04.212Z,36.88
2018-05-23T07:28:07.452Z,34.72
2018-05-23T07:29:09.940Z,35.75
2018-05-23T07:30:12.582Z,34.40
2018-05-23T07:31:15.444Z,37.97
2018-05-23T07:32:17.956Z,36.00
2018-05-23T07:33:20.428Z,36.03
2018-05-23T07:34:23.691Z,36.97
2018-05-23T07:35:26.424Z,34.97
2018-05-23T07:36:29.003Z,37.53
2018-05-23T07:37:31.503Z,35.08
2018-05-23T07:38:33.972Z,37.22
2018-05-23T07:39:36.461Z,37.08
2018-05-23T07:40:39.973Z,35.83
2018-05-23T07:41:43.794Z,35.50
2018-05-23T07:42:46.263Z,33.05
2018-05-23T07:43:48.739Z,33.58
2018-05-23T07:44:51.232Z,32.25
2018-05-23T07:45:54.560Z,33.38
2018-05-23T07:46:57.855Z,36.60
2018-05-23T07:48:00.326Z,34.60
2018-05-23T07:49:02.796Z,32.78
2018-05-23T07:50:05.279Z,33.08
2018-05-23T07:51:07.922Z,33.13
2018-05-23T07:52:10.400Z,27.92
2018-05-23T07:53:12.876Z,28.62
2018-05-23T07:54:15.353Z,26.92
2018-05-23T07:55:18.908Z,29.48
2018-05-23T07:56:21.696Z,28.85
2018-05-23T07:57:24.948Z,27.87
2018-05-23T07:58:27.420Z,29.60
2018-05-23T07:59:29.887Z,30.10
2018-05-23T08:00:32.677Z,30.83
2018-05-23T08:01:35.936Z,30.35
2018-05-23T08:02:38.403Z,29.83
2018-05-23T08:03:40.937Z,30.35
2018-05-23T08:04:43.359Z,31.17
2018-05-23T08:05:46.184Z,30.40
2018-05-23T08:06:48.700Z,28.20
2018-05-23T08:07:51.169Z,26.70
2018-05-23T08:08:53.637Z,29.33
2018-05-23T08:09:56.872Z,28.08
2018-05-23T08:10:59.628Z,29.00
2018-05-23T08:12:02.128Z,28.65
2018-05-23T08:13:04.596Z,28.30
2018-05-23T08:14:07.068Z,28.23
2018-05-23T08:15:10.714Z,28.02
2018-05-23T08:16:13.486Z,27.95
2018-05-23T08:17:15.988Z,27.02
2018-05-23T08:18:18.464Z,26.60
2018-05-23T08:19:20.936Z,27.17
2018-05-23T08:20:24.469Z,28.10
2018-05-23T08:21:27.360Z,26.60
2018-05-23T08:22:29.831Z,27.45
2018-05-23T08:23:32.304Z,26.50
2018-05-23T08:24:34.772Z,26.87
2018-05-23T08:25:37.609Z,26.40
2018-05-23T08:26:40.140Z,26.90
2018-05-23T08:27:43.376Z,25.98
2018-05-23T08:28:45.852Z,27.10
2018-05-23T08:29:48.374Z,25.73
2018-05-23T08:30:50.997Z,25.23
2018-05-23T08:31:54.271Z,25.88
2018-05-23T08:32:56.744Z,22.80
2018-05-23T08:33:59.224Z,21.60
2018-05-23T08:35:02.551Z,21.05
2018-05-23T08:36:05.225Z,18.85
2018-05-23T08:37:07.735Z,19.35
2018-05-23T08:38:10.207Z,20.85
2018-05-23T08:39:14.187Z,19.95
2018-05-23T08:40:16.961Z,20.48
2018-05-23T08:41:19.740Z,18.98
2018-05-23T08:42:23.020Z,20.75
2018-05-23T08:43:25.491Z,18.45
2018-05-23T08:44:27.969Z,18.27
2018-05-23T08:45:32.313Z,18.35
2018-05-23T08:46:34.815Z,17.37
2018-05-23T08:47:37.308Z,18.83
2018-05-23T08:48:40.544Z,17.52
2018-05-23T08:49:43.012Z,17.12
2018-05-23T08:50:45.863Z,16.05
2018-05-23T08:51:48.372Z,15.80
2018-05-23T08:52:50.864Z,16.70
2018-05-23T08:53:54.100Z,16.20
2018-05-23T08:54:56.575Z,16.95
2018-05-23T08:55:59.821Z,16.55
2018-05-23T08:57:02.327Z,16.00
2018-05-23T08:58:04.816Z,15.48
2018-05-23T08:59:08.056Z,15.20
2018-05-23T09:00:10.742Z,15.15
2018-05-23T09:01:13.587Z,12.98
2018-05-23T09:02:16.076Z,14.77
2018-05-23T09:03:18.572Z,14.23
2018-05-23T09:04:21.811Z,14.15
2018-05-23T09:05:25.307Z,14.07
2018-05-23T09:06:27.856Z,13.52
2018-05-23T09:07:30.325Z,13.32
2018-05-23T09:08:32.816Z,14.50
2018-05-23T09:09:35.292Z,13.80
2018-05-23T09:10:38.009Z,14.10
2018-05-23T09:11:40.512Z,14.18
2018-05-23T09:12:42.983Z,14.35
2018-05-23T09:13:45.476Z,14.05
2018-05-23T09:14:48.711Z,13.60
2018-05-23T09:15:51.455Z,14.48
2018-05-23T09:16:53.980Z,13.50
2018-05-23T09:17:56.444Z,14.35
2018-05-23T09:19:00.456Z,13.25
2018-05-23T09:20:03.692Z,14.02
2018-05-23T09:21:06.900Z,14.18
2018-05-23T09:22:10.883Z,14.05
2018-05-23T09:23:13.351Z,12.88
2018-05-23T09:24:15.845Z,14.23
2018-05-23T09:25:19.342Z,13.70
2018-05-23T09:26:22.768Z,13.68
2018-05-23T09:27:25.271Z,12.88
2018-05-23T09:28:27.743Z,12.77
2018-05-23T09:29:31.744Z,13.50
2018-05-23T09:30:35.272Z,13.93
2018-05-23T09:31:37.784Z,14.40
2018-05-23T09:32:40.256Z,13.93
2018-05-23T09:33:42.724Z,13.13
2018-05-23T09:34:46.724Z,11.55
2018-05-23T09:35:49.436Z,11.05
2018-05-23T09:36:51.927Z,10.65
2018-05-23T09:37:54.395Z,7.93
2018-05-23T09:38:56.860Z,6.93
2018-05-23T09:39:59.339Z,6.40
2018-05-23T09:41:02.103Z,5.62
2018-05-23T09:42:04.584Z,5.50
2018-05-23T09:43:07.048Z,5.20
2018-05-23T09:44:09.517Z,5.55
2018-05-23T09:45:14.067Z,5.12
2018-05-23T09:46:17.501Z,5.75
2018-05-23T09:47:20.755Z,5.35
2018-05-23T09:48:23.220Z,5.37
2018-05-23T09:49:25.684Z,5.07
2018-05-23T09:50:28.542Z,5.20
2018-05-23T09:51:31.316Z,5.57
2018-05-23T09:52:33.807Z,6.45
2018-05-23T09:53:36.284Z,6.95
2018-05-23T09:54:38.748Z,5.00
2018-05-23T09:55:41.584Z,4.45
2018-05-23T09:56:44.087Z,5.70
2018-05-23T09:57:46.551Z,4.70
2018-05-23T09:58:49.020Z,4.70
2018-05-23T09:59:51.480Z,4.68
2018-05-23T10:00:54.213Z,4.97
2018-05-23T10:01:56.703Z,4.95
2018-05-23T10:02:59.171Z,4.75
2018-05-23T10:04:01.636Z,5.05
2018-05-23T10:05:04.104Z,4.90
2018-05-23T10:06:07.574Z,5.20
2018-05-23T10:07:10.071Z,5.03
2018-05-23T10:08:12.535Z,4.25
2018-05-23T10:09:15.782Z,4.15
2018-05-23T10:10:18.640Z,4.20
2018-05-23T10:11:22.435Z,4.03
2018-05-23T10:12:24.924Z,4.35
2018-05-23T10:13:27.400Z,4.40
2018-05-23T10:14:29.868Z,4.18
2018-05-23T10:15:32.701Z,4.10
2018-05-23T10:16:35.220Z,4.12
2018-05-23T10:17:39.202Z,4.20
2018-05-23T10:18:41.664Z,4.55
2018-05-23T10:19:44.132Z,4.80
2018-05-23T10:20:46.913Z,4.55
2018-05-23T10:21:50.180Z,4.35
2018-05-23T10:22:52.648Z,5.25
2018-05-23T10:23:55.112Z,4.70
2018-05-23T10:24:57.584Z,4.70
2018-05-23T10:26:00.416Z,3.90
2018-05-23T10:27:02.939Z,3.80
2018-05-23T10:28:06.911Z,4.12
2018-05-23T10:29:09.380Z,4.45
2018-05-23T10:30:12.772Z,4.28
2018-05-23T10:31:15.549Z,4.10
2018-05-23T10:32:18.820Z,4.10
2018-05-23T10:33:21.365Z,4.03
2018-05-23T10:34:23.760Z,3.75
2018-05-23T10:35:26.535Z,4.22
2018-05-23T10:36:29.056Z,3.90
2018-05-23T10:37:31.536Z,4.30
2018-05-23T10:38:34.007Z,3.97
2018-05-23T10:39:36.468Z,3.80
2018-05-23T10:40:39.120Z,4.18
2018-05-23T10:41:41.611Z,4.18
2018-05-23T10:42:44.109Z,3.67
2018-05-23T10:43:47.344Z,4.03
2018-05-23T10:44:49.813Z,4.00
2018-05-23T10:45:52.561Z,3.35
2018-05-23T10:46:55.068Z,5.07
2018-05-23T10:47:57.551Z,4.47
2018-05-23T10:49:00.784Z,4.95
2018-05-23T10:50:03.248Z,4.47
2018-05-23T10:51:06.008Z,3.97
2018-05-23T10:52:08.532Z,3.78
2018-05-23T10:53:11.000Z,4.53
2018-05-23T10:54:14.231Z,4.43
2018-05-23T10:55:16.932Z,4.03
2018-05-23T10:56:20.889Z,4.10
2018-05-23T10:57:23.387Z,4.20
2018-05-23T10:58:25.872Z,3.78
2018-05-23T10:59:29.112Z,3.40
2018-05-23T11:00:31.769Z,4.40
2018-05-23T11:01:34.263Z,3.97
2018-05-23T11:02:36.735Z,3.58
2018-05-23T11:03:39.217Z,4.30
2018-05-23T11:04:41.679Z,3.62
2018-05-23T11:05:45.235Z,3.78
2018-05-23T11:06:48.519Z,3.85
2018-05-23T11:07:50.983Z,3.90
2018-05-23T11:08:53.512Z,4.22
2018-05-23T11:09:55.947Z,3.83
2018-05-23T11:10:58.664Z,4.70
2018-05-23T11:12:01.167Z,4.25
2018-05-23T11:13:03.635Z,5.20
2018-05-23T11:14:06.115Z,5.00
2018-05-23T11:15:09.660Z,5.55
2018-05-23T11:16:12.420Z,4.43
2018-05-23T11:17:14.921Z,5.87
2018-05-23T11:18:17.388Z,5.57
2018-05-23T11:19:19.872Z,5.18
2018-05-23T11:20:24.017Z,4.45
2018-05-23T11:21:26.709Z,4.32
2018-05-23T11:22:29.185Z,5.78
2018-05-23T11:23:31.652Z,5.03
2018-05-23T11:24:34.139Z,4.53
2018-05-23T11:25:37.669Z,4.12
2018-05-23T11:26:40.172Z,4.70
2018-05-23T11:27:42.644Z,4.18
2018-05-23T11:28:45.112Z,4.00
2018-05-23T11:29:47.664Z,4.37
2018-05-23T11:30:51.220Z,3.90
2018-05-23T11:31:54.262Z,4.28
2018-05-23T11:32:57.497Z,3.90
2018-05-23T11:33:59.961Z,4.43
2018-05-23T11:35:02.597Z,4.22
2018-05-23T11:36:05.692Z,6.10
2018-05-23T11:37:08.183Z,4.30
2018-05-23T11:38:10.652Z,5.25
2018-05-23T11:39:13.120Z,4.35
2018-05-23T11:40:15.854Z,7.20
2018-05-23T11:41:18.528Z,4.28
2018-05-23T11:42:21.029Z,4.15
2018-05-23T11:43:23.488Z,4.37
2018-05-23T11:44:25.951Z,4.10
2018-05-23T11:45:28.687Z,3.85
2018-05-23T11:46:31.508Z,4.25
2018-05-23T11:47:34.764Z,3.83
2018-05-23T11:48:37.231Z,3.70
2018-05-23T11:49:39.699Z,5.22
2018-05-23T11:50:42.544Z,3.65
2018-05-23T11:51:45.040Z,4.68
2018-05-23T11:52:47.516Z,4.60
2018-05-23T11:53:49.995Z,5.68
2018-05-23T11:54:52.460Z,4.93
2018-05-23T11:55:55.992Z,3.85
2018-05-23T11:56:58.491Z,3.60
2018-05-23T11:58:00.956Z,3.60
2018-05-23T11:59:03.424Z,3.35
2018-05-23T12:00:05.892Z,3.10
2018-05-23T12:01:08.651Z,4.78
2018-05-23T12:02:11.141Z,4.03
2018-05-23T12:03:14.375Z,3.92
2018-05-23T12:04:16.843Z,3.67
2018-05-23T12:05:19.603Z,4.45
2018-05-23T12:06:22.220Z,3.80
2018-05-23T12:07:24.694Z,5.78
2018-05-23T12:08:27.927Z,5.95
2018-05-23T12:09:30.400Z,6.95
2018-05-23T12:10:33.251Z,3.65
2018-05-23T12:11:36.992Z,4.03
2018-05-23T12:12:39.464Z,5.22
2018-05-23T12:13:43.447Z,4.25
2018-05-23T12:14:45.908Z,5.80
2018-05-23T12:15:48.751Z,4.47
2018-05-23T12:16:51.252Z,3.40
2018-05-23T12:17:53.719Z,5.75
2018-05-23T12:18:56.183Z,5.32
2018-05-23T12:19:58.651Z,3.60
2018-05-23T12:21:01.379Z,3.80
2018-05-23T12:22:03.888Z,5.12
2018-05-23T12:23:06.361Z,4.10
2018-05-23T12:24:08.828Z,4.20
2018-05-23T12:25:12.302Z,3.60
2018-05-23T12:26:15.744Z,3.70
2018-05-23T12:27:18.249Z,4.28
2018-05-23T12:28:20.712Z,4.43
2018-05-23T12:29:23.180Z,4.25
2018-05-23T12:30:25.956Z,3.70
2018-05-23T12:31:30.225Z,4.12
2018-05-23T12:32:32.740Z,4.12
2018-05-23T12:33:35.973Z,4.70
2018-05-23T12:34:38.439Z,4.20
2018-05-23T12:35:41.082Z,4.20
2018-05-23T12:36:43.568Z,4.12
2018-05-23T12:37:46.047Z,3.90
2018-05-23T12:38:48.511Z,4.50
2018-05-23T12:39:50.995Z,3.65
2018-05-23T12:40:53.922Z,3.62
2018-05-23T12:41:57.127Z,2.65
2018-05-23T12:42:59.611Z,3.75
2018-05-23T12:44:02.085Z,3.87
2018-05-23T12:45:04.548Z,3.67
2018-05-23T12:46:07.313Z,3.70
2018-05-23T12:47:11.307Z,3.37
2018-05-23T12:48:13.792Z,4.20
2018-05-23T12:49:16.264Z,4.25
2018-05-23T12:50:19.738Z,4.47
2018-05-23T12:51:22.672Z,4.45
2018-05-23T12:52:25.164Z,4.53
2018-05-23T12:53:27.643Z,4.90
2018-05-23T12:54:30.115Z,4.62
2018-05-23T12:55:33.553Z,4.95
2018-05-23T12:56:36.047Z,5.43
2018-05-23T12:57:38.515Z,3.80
2018-05-23T12:58:41.011Z,4.28
2018-05-23T12:59:44.244Z,3.90
2018-05-23T13:00:47.041Z,3.83
2018-05-23T13:01:50.295Z,3.47
2018-05-23T13:02:52.764Z,3.22
2018-05-23T13:03:55.247Z,4.25
2018-05-23T13:04:57.708Z,3.75
2018-05-23T13:06:00.491Z,3.70
2018-05-23T13:07:04.482Z,4.05
2018-05-23T13:08:06.948Z,3.28
2018-05-23T13:09:09.436Z,4.10
2018-05-23T13:10:13.891Z,4.18
2018-05-23T13:11:16.762Z,3.62
2018-05-23T13:12:19.289Z,3.35
2018-05-23T13:13:21.748Z,3.85
2018-05-23T13:14:25.020Z,4.28
2018-05-23T13:15:27.688Z,4.82
2018-05-23T13:16:31.336Z,4.25
2018-05-23T13:17:33.832Z,4.00
2018-05-23T13:18:36.303Z,3.67
2018-05-23T13:19:38.786Z,4.20
2018-05-23T13:20:42.227Z,3.78
2018-05-23T13:21:44.716Z,4.70
2018-05-23T13:22:47.183Z,3.80
2018-05-23T13:23:49.652Z,3.67
2018-05-23T13:24:52.143Z,3.37
2018-05-23T13:25:55.776Z,2.90
2018-05-23T13:26:59.084Z,3.28
2018-05-23T13:28:01.551Z,3.03
2018-05-23T13:29:04.020Z,4.90
2018-05-23T13:30:06.504Z,3.95
2018-05-23T13:31:10.034Z,4.00
2018-05-23T13:32:12.532Z,4.10
2018-05-23T13:33:14.995Z,3.90
2018-05-23T13:34:17.464Z,3.42
2018-05-23T13:35:20.211Z,3.95
2018-05-23T13:36:23.072Z,4.07
2018-05-23T13:37:25.584Z,4.10
2018-05-23T13:38:28.056Z,3.60
2018-05-23T13:39:31.284Z,3.75